sensor_id;sensor_type;location;lat;lon;timestamp;temperature;humidity
25716;DHT22;13573;50.936;4.328;2022-08-19T00:01:49;20.30;99.90
25716;DHT22;13573;50.936;4.328;2022-08-19T00:04:19;19.70;99.90
25716;DHT22;13573;50.936;4.328;2022-08-19T00:06:47;20.20;99.90
25716;DHT22;13573;50.936;4.328;2022-08-19T00:09:16;20.20;99.90
25716;DHT22;13573;50.936;4.328;2022-08-19T00:11:45;19.80;99.90
25716;DHT22;13573;50.936;4.328;2022-08-19T00:14:14;19.30;99.90
25716;DHT22;13573;50.936;4.328;2022-08-19T00:16:43;20.10;99.90
25716;DHT22;13573;50.936;4.328;2022-08-19T00:19:10;20.10;99.90
25716;DHT22;13573;50.936;4.328;2022-08-19T00:21:36;19.90;99.90
25716;DHT22;13573;50.936;4.328;2022-08-19T00:24:08;20.00;99.90
25716;DHT22;13573;50.936;4.328;2022-08-19T00:26:36;19.80;99.90
25716;DHT22;13573;50.936;4.328;2022-08-19T00:29:06;19.80;99.90
25716;DHT22;13573;50.936;4.328;2022-08-19T00:31:33;20.00;99.90
25716;DHT22;13573;50.936;4.328;2022-08-19T00:33:59;20.00;99.90
25716;DHT22;13573;50.936;4.328;2022-08-19T00:36:26;19.80;99.90
25716;DHT22;13573;50.936;4.328;2022-08-19T00:38:55;20.10;99.90
25716;DHT22;13573;50.936;4.328;2022-08-19T00:41:23;20.00;99.90
25716;DHT22;13573;50.936;4.328;2022-08-19T00:44:07;20.10;99.90
25716;DHT22;13573;50.936;4.328;2022-08-19T00:46:36;19.90;99.90
25716;DHT22;13573;50.936;4.328;2022-08-19T00:49:10;20.00;99.90
25716;DHT22;13573;50.936;4.328;2022-08-19T00:51:35;19.60;99.90
25716;DHT22;13573;50.936;4.328;2022-08-19T00:54:03;19.90;99.90
25716;DHT22;13573;50.936;4.328;2022-08-19T00:56:30;19.50;99.90
25716;DHT22;13573;50.936;4.328;2022-08-19T00:58:58;19.60;99.90
25716;DHT22;13573;50.936;4.328;2022-08-19T01:01:26;19.90;99.90
25716;DHT22;13573;50.936;4.328;2022-08-19T01:03:53;19.70;99.90
25716;DHT22;13573;50.936;4.328;2022-08-19T01:06:19;19.90;99.90
25716;DHT22;13573;50.936;4.328;2022-08-19T01:08:47;19.90;99.90
25716;DHT22;13573;50.936;4.328;2022-08-19T01:11:14;19.30;99.90
25716;DHT22;13573;50.936;4.328;2022-08-19T01:13:40;19.80;99.90
25716;DHT22;13573;50.936;4.328;2022-08-19T01:16:10;19.60;99.90
25716;DHT22;13573;50.936;4.328;2022-08-19T01:18:40;19.70;99.90
25716;DHT22;13573;50.936;4.328;2022-08-19T01:21:15;18.90;99.90
25716;DHT22;13573;50.936;4.328;2022-08-19T01:23:40;19.10;99.90
25716;DHT22;13573;50.936;4.328;2022-08-19T01:26:14;19.00;99.90
25716;DHT22;13573;50.936;4.328;2022-08-19T01:28:42;19.30;99.90
25716;DHT22;13573;50.936;4.328;2022-08-19T01:31:15;19.20;99.90
25716;DHT22;13573;50.936;4.328;2022-08-19T01:33:41;19.10;99.90
25716;DHT22;13573;50.936;4.328;2022-08-19T01:36:12;19.30;99.90
25716;DHT22;13573;50.936;4.328;2022-08-19T01:38:41;19.70;99.90
25716;DHT22;13573;50.936;4.328;2022-08-19T01:41:10;18.90;99.90
25716;DHT22;13573;50.936;4.328;2022-08-19T01:43:37;18.70;99.90
25716;DHT22;13573;50.936;4.328;2022-08-19T01:46:04;19.00;99.90
25716;DHT22;13573;50.936;4.328;2022-08-19T01:48:35;18.80;99.90
25716;DHT22;13573;50.936;4.328;2022-08-19T01:51:02;18.80;99.90
25716;DHT22;13573;50.936;4.328;2022-08-19T01:53:29;18.70;99.90
25716;DHT22;13573;50.936;4.328;2022-08-19T01:55:56;18.80;99.90
25716;DHT22;13573;50.936;4.328;2022-08-19T01:58:27;18.70;99.90
25716;DHT22;13573;50.936;4.328;2022-08-19T02:00:53;18.70;99.90
25716;DHT22;13573;50.936;4.328;2022-08-19T02:03:20;18.80;99.90
25716;DHT22;13573;50.936;4.328;2022-08-19T02:05:47;18.90;99.90
25716;DHT22;13573;50.936;4.328;2022-08-19T02:08:14;18.50;99.90
25716;DHT22;13573;50.936;4.328;2022-08-19T02:10:42;18.90;99.90
25716;DHT22;13573;50.936;4.328;2022-08-19T02:13:11;18.80;99.90
25716;DHT22;13573;50.936;4.328;2022-08-19T02:15:39;18.80;99.90
25716;DHT22;13573;50.936;4.328;2022-08-19T02:20:35;18.50;99.90
25716;DHT22;13573;50.936;4.328;2022-08-19T02:23:01;18.60;99.90
25716;DHT22;13573;50.936;4.328;2022-08-19T02:25:28;18.50;99.90
25716;DHT22;13573;50.936;4.328;2022-08-19T02:27:55;18.40;99.90
25716;DHT22;13573;50.936;4.328;2022-08-19T02:30:22;18.50;99.90
25716;DHT22;13573;50.936;4.328;2022-08-19T02:32:51;18.40;99.90
25716;DHT22;13573;50.936;4.328;2022-08-19T02:35:18;18.40;99.90
25716;DHT22;13573;50.936;4.328;2022-08-19T02:37:45;18.40;99.90
25716;DHT22;13573;50.936;4.328;2022-08-19T02:40:17;18.20;99.90
25716;DHT22;13573;50.936;4.328;2022-08-19T02:42:44;18.80;99.90
25716;DHT22;13573;50.936;4.328;2022-08-19T02:45:13;18.30;99.90
25716;DHT22;13573;50.936;4.328;2022-08-19T02:47:40;18.30;99.90
25716;DHT22;13573;50.936;4.328;2022-08-19T02:50:07;18.50;99.90
25716;DHT22;13573;50.936;4.328;2022-08-19T02:52:35;18.30;99.90
25716;DHT22;13573;50.936;4.328;2022-08-19T02:55:02;18.40;99.90
25716;DHT22;13573;50.936;4.328;2022-08-19T02:57:30;18.40;99.90
25716;DHT22;13573;50.936;4.328;2022-08-19T02:59:58;18.30;99.90
25716;DHT22;13573;50.936;4.328;2022-08-19T03:02:25;18.20;99.90
25716;DHT22;13573;50.936;4.328;2022-08-19T03:04:52;18.30;99.90
25716;DHT22;13573;50.936;4.328;2022-08-19T03:07:18;18.30;99.90
25716;DHT22;13573;50.936;4.328;2022-08-19T03:09:45;18.20;99.90
25716;DHT22;13573;50.936;4.328;2022-08-19T03:12:12;18.20;99.90
25716;DHT22;13573;50.936;4.328;2022-08-19T03:14:38;18.20;99.90
25716;DHT22;13573;50.936;4.328;2022-08-19T03:17:07;18.00;99.90
25716;DHT22;13573;50.936;4.328;2022-08-19T03:19:33;17.30;99.90
25716;DHT22;13573;50.936;4.328;2022-08-19T03:22:01;18.20;99.90
25716;DHT22;13573;50.936;4.328;2022-08-19T03:24:28;18.20;99.90
25716;DHT22;13573;50.936;4.328;2022-08-19T03:26:57;18.20;99.90
25716;DHT22;13573;50.936;4.328;2022-08-19T03:29:27;18.20;99.90
25716;DHT22;13573;50.936;4.328;2022-08-19T03:31:54;18.10;99.90
25716;DHT22;13573;50.936;4.328;2022-08-19T03:34:25;18.00;99.90
25716;DHT22;13573;50.936;4.328;2022-08-19T03:36:56;17.90;99.90
25716;DHT22;13573;50.936;4.328;2022-08-19T03:39:24;17.70;99.90
25716;DHT22;13573;50.936;4.328;2022-08-19T03:41:53;18.10;99.90
25716;DHT22;13573;50.936;4.328;2022-08-19T03:44:22;18.20;99.90
25716;DHT22;13573;50.936;4.328;2022-08-19T03:46:52;17.50;99.90
25716;DHT22;13573;50.936;4.328;2022-08-19T03:49:19;17.70;99.90
25716;DHT22;13573;50.936;4.328;2022-08-19T03:51:48;17.60;99.90
25716;DHT22;13573;50.936;4.328;2022-08-19T03:54:19;18.90;99.90
25716;DHT22;13573;50.936;4.328;2022-08-19T03:59:19;17.50;99.90
25716;DHT22;13573;50.936;4.328;2022-08-19T04:01:46;17.60;99.90
25716;DHT22;13573;50.936;4.328;2022-08-19T04:04:13;17.90;99.90
25716;DHT22;13573;50.936;4.328;2022-08-19T04:06:39;17.80;99.90
25716;DHT22;13573;50.936;4.328;2022-08-19T04:09:10;17.60;99.90
25716;DHT22;13573;50.936;4.328;2022-08-19T04:11:41;17.90;99.90
25716;DHT22;13573;50.936;4.328;2022-08-19T04:14:11;17.90;99.90
25716;DHT22;13573;50.936;4.328;2022-08-19T04:16:38;17.60;99.90
25716;DHT22;13573;50.936;4.328;2022-08-19T04:19:05;17.60;99.90
25716;DHT22;13573;50.936;4.328;2022-08-19T04:21:34;17.70;99.90
25716;DHT22;13573;50.936;4.328;2022-08-19T04:24:01;17.70;99.90
25716;DHT22;13573;50.936;4.328;2022-08-19T04:26:31;17.70;99.90
25716;DHT22;13573;50.936;4.328;2022-08-19T04:29:01;17.60;99.90
25716;DHT22;13573;50.936;4.328;2022-08-19T04:31:31;17.50;99.90
25716;DHT22;13573;50.936;4.328;2022-08-19T04:34:01;17.50;99.90
25716;DHT22;13573;50.936;4.328;2022-08-19T04:36:31;17.50;99.90
25716;DHT22;13573;50.936;4.328;2022-08-19T04:39:05;17.10;99.90
25716;DHT22;13573;50.936;4.328;2022-08-19T04:44:03;18.10;99.90
25716;DHT22;13573;50.936;4.328;2022-08-19T04:46:30;18.30;99.90
25716;DHT22;13573;50.936;4.328;2022-08-19T04:48:59;19.10;99.90
25716;DHT22;13573;50.936;4.328;2022-08-19T04:51:26;20.20;99.90
25716;DHT22;13573;50.936;4.328;2022-08-19T04:53:53;19.20;99.90
25716;DHT22;13573;50.936;4.328;2022-08-19T04:56:20;19.60;99.90
25716;DHT22;13573;50.936;4.328;2022-08-19T04:58:49;18.70;99.90
25716;DHT22;13573;50.936;4.328;2022-08-19T05:01:21;19.90;99.90
25716;DHT22;13573;50.936;4.328;2022-08-19T05:03:49;19.80;99.90
25716;DHT22;13573;50.936;4.328;2022-08-19T05:06:19;19.90;99.90
25716;DHT22;13573;50.936;4.328;2022-08-19T05:08:47;20.00;99.90
25716;DHT22;13573;50.936;4.328;2022-08-19T05:11:17;20.00;99.90
25716;DHT22;13573;50.936;4.328;2022-08-19T05:13:44;20.10;99.90
25716;DHT22;13573;50.936;4.328;2022-08-19T05:18:40;20.30;99.90
25716;DHT22;13573;50.936;4.328;2022-08-19T05:21:15;20.50;99.90
25716;DHT22;13573;50.936;4.328;2022-08-19T05:23:48;20.30;99.90
25716;DHT22;13573;50.936;4.328;2022-08-19T05:26:15;20.90;99.90
25716;DHT22;13573;50.936;4.328;2022-08-19T05:28:42;21.00;99.90
25716;DHT22;13573;50.936;4.328;2022-08-19T05:31:09;21.00;99.90
25716;DHT22;13573;50.936;4.328;2022-08-19T05:33:36;21.40;99.90
25716;DHT22;13573;50.936;4.328;2022-08-19T05:36:04;21.80;99.90
25716;DHT22;13573;50.936;4.328;2022-08-19T05:38:34;21.80;99.90
25716;DHT22;13573;50.936;4.328;2022-08-19T05:41:09;22.00;99.90
25716;DHT22;13573;50.936;4.328;2022-08-19T05:43:36;21.10;99.90
25716;DHT22;13573;50.936;4.328;2022-08-19T05:46:04;21.00;99.90
25716;DHT22;13573;50.936;4.328;2022-08-19T05:48:33;21.30;99.90
25716;DHT22;13573;50.936;4.328;2022-08-19T05:51:05;21.50;99.90
25716;DHT22;13573;50.936;4.328;2022-08-19T05:53:33;21.30;99.90
25716;DHT22;13573;50.936;4.328;2022-08-19T05:56:06;21.30;99.90
25716;DHT22;13573;50.936;4.328;2022-08-19T05:58:33;20.90;99.90
25716;DHT22;13573;50.936;4.328;2022-08-19T06:01:01;21.20;99.90
25716;DHT22;13573;50.936;4.328;2022-08-19T06:03:31;21.80;99.90
25716;DHT22;13573;50.936;4.328;2022-08-19T06:05:59;22.00;99.90
25716;DHT22;13573;50.936;4.328;2022-08-19T06:08:26;22.40;99.90
25716;DHT22;13573;50.936;4.328;2022-08-19T06:10:53;22.80;99.90
25716;DHT22;13573;50.936;4.328;2022-08-19T06:13:21;23.00;99.90
25716;DHT22;13573;50.936;4.328;2022-08-19T06:15:49;23.00;99.90
25716;DHT22;13573;50.936;4.328;2022-08-19T06:18:16;23.80;99.90
25716;DHT22;13573;50.936;4.328;2022-08-19T06:20:44;24.00;99.90
25716;DHT22;13573;50.936;4.328;2022-08-19T06:23:10;23.60;99.90
25716;DHT22;13573;50.936;4.328;2022-08-19T06:25:39;23.80;99.90
25716;DHT22;13573;50.936;4.328;2022-08-19T06:28:06;23.90;99.90
25716;DHT22;13573;50.936;4.328;2022-08-19T06:30:32;23.60;99.90
25716;DHT22;13573;50.936;4.328;2022-08-19T06:32:59;23.10;99.90
25716;DHT22;13573;50.936;4.328;2022-08-19T06:35:26;23.10;99.90
25716;DHT22;13573;50.936;4.328;2022-08-19T06:37:53;23.00;99.90
25716;DHT22;13573;50.936;4.328;2022-08-19T06:40:22;23.50;99.90
25716;DHT22;13573;50.936;4.328;2022-08-19T06:42:49;23.30;99.90
25716;DHT22;13573;50.936;4.328;2022-08-19T06:45:16;23.30;99.90
25716;DHT22;13573;50.936;4.328;2022-08-19T06:47:43;22.90;99.90
25716;DHT22;13573;50.936;4.328;2022-08-19T06:50:12;22.50;99.90
25716;DHT22;13573;50.936;4.328;2022-08-19T06:52:38;22.20;99.90
25716;DHT22;13573;50.936;4.328;2022-08-19T06:55:05;21.80;99.90
25716;DHT22;13573;50.936;4.328;2022-08-19T06:57:34;20.50;99.90
25716;DHT22;13573;50.936;4.328;2022-08-19T07:00:01;22.20;99.90
25716;DHT22;13573;50.936;4.328;2022-08-19T07:04:56;22.30;99.90
25716;DHT22;13573;50.936;4.328;2022-08-19T07:07:23;22.40;99.90
25716;DHT22;13573;50.936;4.328;2022-08-19T07:09:51;22.00;99.90
25716;DHT22;13573;50.936;4.328;2022-08-19T07:12:19;22.40;99.90
25716;DHT22;13573;50.936;4.328;2022-08-19T07:14:45;22.30;99.90
25716;DHT22;13573;50.936;4.328;2022-08-19T07:17:12;23.20;99.90
25716;DHT22;13573;50.936;4.328;2022-08-19T07:19:39;22.80;99.90
25716;DHT22;13573;50.936;4.328;2022-08-19T07:22:08;22.90;99.90
25716;DHT22;13573;50.936;4.328;2022-08-19T07:24:36;23.10;99.90
25716;DHT22;13573;50.936;4.328;2022-08-19T07:27:05;23.20;99.90
25716;DHT22;13573;50.936;4.328;2022-08-19T07:29:34;23.00;99.90
25716;DHT22;13573;50.936;4.328;2022-08-19T07:32:01;23.20;99.90
25716;DHT22;13573;50.936;4.328;2022-08-19T07:34:29;23.30;99.90
25716;DHT22;13573;50.936;4.328;2022-08-19T07:36:58;23.40;99.90
25716;DHT22;13573;50.936;4.328;2022-08-19T07:39:28;23.50;99.90
25716;DHT22;13573;50.936;4.328;2022-08-19T07:41:57;23.30;99.90
25716;DHT22;13573;50.936;4.328;2022-08-19T07:44:25;23.10;99.90
25716;DHT22;13573;50.936;4.328;2022-08-19T07:46:54;23.30;99.90
25716;DHT22;13573;50.936;4.328;2022-08-19T07:49:22;22.80;99.90
25716;DHT22;13573;50.936;4.328;2022-08-19T07:51:56;23.10;99.90
25716;DHT22;13573;50.936;4.328;2022-08-19T07:54:25;23.10;99.90
25716;DHT22;13573;50.936;4.328;2022-08-19T07:56:54;23.30;99.90
25716;DHT22;13573;50.936;4.328;2022-08-19T07:59:22;23.30;99.90
25716;DHT22;13573;50.936;4.328;2022-08-19T08:01:50;23.30;99.90
25716;DHT22;13573;50.936;4.328;2022-08-19T08:04:18;23.70;99.90
25716;DHT22;13573;50.936;4.328;2022-08-19T08:06:50;23.50;99.90
25716;DHT22;13573;50.936;4.328;2022-08-19T08:09:27;23.60;99.90
25716;DHT22;13573;50.936;4.328;2022-08-19T08:11:58;23.80;99.90
25716;DHT22;13573;50.936;4.328;2022-08-19T08:14:30;23.60;99.90
25716;DHT22;13573;50.936;4.328;2022-08-19T08:16:58;23.20;99.90
25716;DHT22;13573;50.936;4.328;2022-08-19T08:19:27;23.40;99.90
25716;DHT22;13573;50.936;4.328;2022-08-19T08:21:57;23.10;99.90
25716;DHT22;13573;50.936;4.328;2022-08-19T08:24:26;23.10;99.90
25716;DHT22;13573;50.936;4.328;2022-08-19T08:29:20;23.00;99.90
25716;DHT22;13573;50.936;4.328;2022-08-19T08:31:47;21.80;99.90
25716;DHT22;13573;50.936;4.328;2022-08-19T08:36:44;20.80;99.90
25716;DHT22;13573;50.936;4.328;2022-08-19T08:39:14;22.80;99.90
25716;DHT22;13573;50.936;4.328;2022-08-19T08:41:52;23.10;99.90
25716;DHT22;13573;50.936;4.328;2022-08-19T08:44:23;23.20;99.90
25716;DHT22;13573;50.936;4.328;2022-08-19T08:47:02;23.30;99.90
25716;DHT22;13573;50.936;4.328;2022-08-19T08:49:45;23.30;99.90
25716;DHT22;13573;50.936;4.328;2022-08-19T08:52:18;23.30;99.90
25716;DHT22;13573;50.936;4.328;2022-08-19T08:54:47;23.60;99.90
25716;DHT22;13573;50.936;4.328;2022-08-19T08:57:23;23.20;99.90
25716;DHT22;13573;50.936;4.328;2022-08-19T08:59:51;21.90;99.90
25716;DHT22;13573;50.936;4.328;2022-08-19T09:02:19;23.40;99.90
25716;DHT22;13573;50.936;4.328;2022-08-19T09:04:47;23.30;99.90
25716;DHT22;13573;50.936;4.328;2022-08-19T09:07:23;23.80;99.90
25716;DHT22;13573;50.936;4.328;2022-08-19T09:09:51;24.60;99.90
25716;DHT22;13573;50.936;4.328;2022-08-19T09:12:33;23.40;99.90
25716;DHT22;13573;50.936;4.328;2022-08-19T09:15:05;23.10;99.90
25716;DHT22;13573;50.936;4.328;2022-08-19T09:17:34;22.80;99.90
25716;DHT22;13573;50.936;4.328;2022-08-19T09:20:14;22.70;99.90
25716;DHT22;13573;50.936;4.328;2022-08-19T09:22:37;23.30;99.90
25716;DHT22;13573;50.936;4.328;2022-08-19T09:25:06;22.60;99.90
25716;DHT22;13573;50.936;4.328;2022-08-19T09:27:33;23.10;99.90
25716;DHT22;13573;50.936;4.328;2022-08-19T09:30:04;23.40;99.90
25716;DHT22;13573;50.936;4.328;2022-08-19T09:32:31;23.80;99.90
25716;DHT22;13573;50.936;4.328;2022-08-19T09:34:57;23.80;99.90
25716;DHT22;13573;50.936;4.328;2022-08-19T09:39:53;23.60;99.90
25716;DHT22;13573;50.936;4.328;2022-08-19T09:42:21;23.70;99.90
25716;DHT22;13573;50.936;4.328;2022-08-19T09:44:48;23.70;99.90
25716;DHT22;13573;50.936;4.328;2022-08-19T09:47:15;23.20;99.90
25716;DHT22;13573;50.936;4.328;2022-08-19T09:49:43;23.70;99.90
25716;DHT22;13573;50.936;4.328;2022-08-19T09:52:10;23.80;99.90
25716;DHT22;13573;50.936;4.328;2022-08-19T09:54:39;23.50;99.90
25716;DHT22;13573;50.936;4.328;2022-08-19T09:57:06;21.90;99.90
25716;DHT22;13573;50.936;4.328;2022-08-19T09:59:33;23.60;99.90
25716;DHT22;13573;50.936;4.328;2022-08-19T10:02:00;23.40;99.90
25716;DHT22;13573;50.936;4.328;2022-08-19T10:04:27;23.40;99.90
25716;DHT22;13573;50.936;4.328;2022-08-19T10:06:56;24.10;99.90
25716;DHT22;13573;50.936;4.328;2022-08-19T10:09:22;23.80;99.90
25716;DHT22;13573;50.936;4.328;2022-08-19T10:11:49;24.00;99.90
25716;DHT22;13573;50.936;4.328;2022-08-19T10:14:16;23.80;99.90
25716;DHT22;13573;50.936;4.328;2022-08-19T10:16:44;23.70;99.90
25716;DHT22;13573;50.936;4.328;2022-08-19T10:19:11;23.60;99.90
25716;DHT22;13573;50.936;4.328;2022-08-19T10:21:37;25.30;99.90
25716;DHT22;13573;50.936;4.328;2022-08-19T10:24:06;24.00;99.90
25716;DHT22;13573;50.936;4.328;2022-08-19T10:26:35;24.10;99.90
25716;DHT22;13573;50.936;4.328;2022-08-19T10:29:03;24.10;99.90
25716;DHT22;13573;50.936;4.328;2022-08-19T10:31:32;24.30;99.90
25716;DHT22;13573;50.936;4.328;2022-08-19T10:33:59;23.30;99.90
25716;DHT22;13573;50.936;4.328;2022-08-19T10:36:31;24.30;99.90
25716;DHT22;13573;50.936;4.328;2022-08-19T10:39:00;24.20;99.90
25716;DHT22;13573;50.936;4.328;2022-08-19T10:41:31;24.50;99.90
25716;DHT22;13573;50.936;4.328;2022-08-19T10:44:03;24.00;99.90
25716;DHT22;13573;50.936;4.328;2022-08-19T10:46:32;24.20;99.90
25716;DHT22;13573;50.936;4.328;2022-08-19T10:49:01;24.10;99.90
25716;DHT22;13573;50.936;4.328;2022-08-19T10:51:28;24.00;99.90
25716;DHT22;13573;50.936;4.328;2022-08-19T10:54:02;23.90;99.90
25716;DHT22;13573;50.936;4.328;2022-08-19T10:56:29;24.00;99.90
25716;DHT22;13573;50.936;4.328;2022-08-19T10:59:03;23.90;99.90
25716;DHT22;13573;50.936;4.328;2022-08-19T11:01:32;24.00;99.90
25716;DHT22;13573;50.936;4.328;2022-08-19T11:04:01;23.90;99.90
25716;DHT22;13573;50.936;4.328;2022-08-19T11:06:28;23.60;99.90
25716;DHT22;13573;50.936;4.328;2022-08-19T11:08:56;23.20;99.90
25716;DHT22;13573;50.936;4.328;2022-08-19T11:11:26;23.10;99.90
25716;DHT22;13573;50.936;4.328;2022-08-19T11:13:55;23.50;99.90
25716;DHT22;13573;50.936;4.328;2022-08-19T11:16:23;23.70;99.90
25716;DHT22;13573;50.936;4.328;2022-08-19T11:18:56;24.60;99.90
25716;DHT22;13573;50.936;4.328;2022-08-19T11:21:27;24.20;99.90
25716;DHT22;13573;50.936;4.328;2022-08-19T11:23:59;24.80;99.90
25716;DHT22;13573;50.936;4.328;2022-08-19T11:26:30;25.00;99.90
25716;DHT22;13573;50.936;4.328;2022-08-19T11:28:58;24.90;99.90
25716;DHT22;13573;50.936;4.328;2022-08-19T11:31:29;24.70;99.90
25716;DHT22;13573;50.936;4.328;2022-08-19T11:33:59;24.10;99.90
25716;DHT22;13573;50.936;4.328;2022-08-19T11:36:27;24.20;99.90
25716;DHT22;13573;50.936;4.328;2022-08-19T11:38:54;23.90;99.90
25716;DHT22;13573;50.936;4.328;2022-08-19T11:41:22;24.40;99.90
25716;DHT22;13573;50.936;4.328;2022-08-19T11:43:52;24.90;99.90
25716;DHT22;13573;50.936;4.328;2022-08-19T11:46:23;25.40;99.90
25716;DHT22;13573;50.936;4.328;2022-08-19T11:48:50;25.70;99.90
25716;DHT22;13573;50.936;4.328;2022-08-19T11:51:20;25.80;99.90
25716;DHT22;13573;50.936;4.328;2022-08-19T11:53:49;26.00;99.90
25716;DHT22;13573;50.936;4.328;2022-08-19T11:56:18;26.40;99.90
25716;DHT22;13573;50.936;4.328;2022-08-19T11:58:45;25.40;99.90
25716;DHT22;13573;50.936;4.328;2022-08-19T12:01:16;26.10;99.90
25716;DHT22;13573;50.936;4.328;2022-08-19T12:03:44;27.50;99.90
25716;DHT22;13573;50.936;4.328;2022-08-19T12:06:14;26.50;99.90
25716;DHT22;13573;50.936;4.328;2022-08-19T12:08:42;26.30;99.90
25716;DHT22;13573;50.936;4.328;2022-08-19T12:11:11;25.10;99.90
25716;DHT22;13573;50.936;4.328;2022-08-19T12:13:41;26.10;99.90
25716;DHT22;13573;50.936;4.328;2022-08-19T12:16:13;26.70;99.90
25716;DHT22;13573;50.936;4.328;2022-08-19T12:18:42;26.40;99.90
25716;DHT22;13573;50.936;4.328;2022-08-19T12:21:13;26.80;99.90
25716;DHT22;13573;50.936;4.328;2022-08-19T12:23:41;27.10;99.90
25716;DHT22;13573;50.936;4.328;2022-08-19T12:26:09;26.80;99.90
25716;DHT22;13573;50.936;4.328;2022-08-19T12:28:37;26.90;99.90
25716;DHT22;13573;50.936;4.328;2022-08-19T12:31:04;26.70;99.90
25716;DHT22;13573;50.936;4.328;2022-08-19T12:33:33;26.50;99.90
25716;DHT22;13573;50.936;4.328;2022-08-19T12:36:02;27.10;99.90
25716;DHT22;13573;50.936;4.328;2022-08-19T12:38:35;27.20;99.90
25716;DHT22;13573;50.936;4.328;2022-08-19T12:41:04;26.40;99.90
25716;DHT22;13573;50.936;4.328;2022-08-19T12:43:33;26.90;99.90
25716;DHT22;13573;50.936;4.328;2022-08-19T12:46:03;26.00;99.90
25716;DHT22;13573;50.936;4.328;2022-08-19T12:50:57;27.70;99.90
25716;DHT22;13573;50.936;4.328;2022-08-19T12:53:25;28.40;99.90
25716;DHT22;13573;50.936;4.328;2022-08-19T12:55:56;28.10;99.90
25716;DHT22;13573;50.936;4.328;2022-08-19T13:00:51;28.30;99.90
25716;DHT22;13573;50.936;4.328;2022-08-19T13:03:17;28.40;99.90
25716;DHT22;13573;50.936;4.328;2022-08-19T13:05:44;30.20;99.90
25716;DHT22;13573;50.936;4.328;2022-08-19T13:08:11;31.00;99.90
25716;DHT22;13573;50.936;4.328;2022-08-19T13:10:38;30.20;99.90
25716;DHT22;13573;50.936;4.328;2022-08-19T13:13:07;30.20;99.90
25716;DHT22;13573;50.936;4.328;2022-08-19T13:15:38;30.10;99.90
25716;DHT22;13573;50.936;4.328;2022-08-19T13:18:07;29.60;99.90
25716;DHT22;13573;50.936;4.328;2022-08-19T13:20:38;30.50;99.90
25716;DHT22;13573;50.936;4.328;2022-08-19T13:23:07;29.30;99.90
25716;DHT22;13573;50.936;4.328;2022-08-19T13:25:35;28.80;99.90
25716;DHT22;13573;50.936;4.328;2022-08-19T13:28:03;28.30;99.90
25716;DHT22;13573;50.936;4.328;2022-08-19T13:30:32;28.00;99.90
25716;DHT22;13573;50.936;4.328;2022-08-19T13:33:05;28.30;99.90
25716;DHT22;13573;50.936;4.328;2022-08-19T13:35:43;29.30;99.90
25716;DHT22;13573;50.936;4.328;2022-08-19T13:38:12;28.20;99.90
25716;DHT22;13573;50.936;4.328;2022-08-19T13:40:40;28.50;99.90
25716;DHT22;13573;50.936;4.328;2022-08-19T13:43:08;28.50;99.90
25716;DHT22;13573;50.936;4.328;2022-08-19T13:45:35;28.30;99.90
25716;DHT22;13573;50.936;4.328;2022-08-19T13:48:04;28.90;99.90
25716;DHT22;13573;50.936;4.328;2022-08-19T13:50:38;29.70;99.90
25716;DHT22;13573;50.936;4.328;2022-08-19T13:53:04;29.60;99.90
25716;DHT22;13573;50.936;4.328;2022-08-19T13:55:32;28.40;99.90
25716;DHT22;13573;50.936;4.328;2022-08-19T13:58:00;28.00;99.90
25716;DHT22;13573;50.936;4.328;2022-08-19T14:02:56;28.00;99.90
25716;DHT22;13573;50.936;4.328;2022-08-19T14:05:26;29.30;99.90
25716;DHT22;13573;50.936;4.328;2022-08-19T14:07:54;28.00;99.90
25716;DHT22;13573;50.936;4.328;2022-08-19T14:10:21;28.00;99.90
25716;DHT22;13573;50.936;4.328;2022-08-19T14:12:51;27.80;99.90
25716;DHT22;13573;50.936;4.328;2022-08-19T14:15:17;26.60;99.90
25716;DHT22;13573;50.936;4.328;2022-08-19T14:17:45;26.10;99.90
25716;DHT22;13573;50.936;4.328;2022-08-19T14:20:15;26.00;99.90
25716;DHT22;13573;50.936;4.328;2022-08-19T14:22:43;25.70;99.90
25716;DHT22;13573;50.936;4.328;2022-08-19T14:25:14;24.70;99.90
25716;DHT22;13573;50.936;4.328;2022-08-19T14:27:41;24.60;99.90
25716;DHT22;13573;50.936;4.328;2022-08-19T14:30:11;24.70;99.90
25716;DHT22;13573;50.936;4.328;2022-08-19T14:32:40;24.90;99.90
25716;DHT22;13573;50.936;4.328;2022-08-19T14:35:10;24.90;99.90
25716;DHT22;13573;50.936;4.328;2022-08-19T14:37:38;25.40;99.90
25716;DHT22;13573;50.936;4.328;2022-08-19T14:40:07;25.00;99.90
25716;DHT22;13573;50.936;4.328;2022-08-19T14:42:35;25.60;99.90
25716;DHT22;13573;50.936;4.328;2022-08-19T14:45:02;24.90;99.90
25716;DHT22;13573;50.936;4.328;2022-08-19T14:47:31;25.60;99.90
25716;DHT22;13573;50.936;4.328;2022-08-19T14:49:58;25.40;99.90
25716;DHT22;13573;50.936;4.328;2022-08-19T14:54:53;26.30;99.90
25716;DHT22;13573;50.936;4.328;2022-08-19T14:57:20;27.60;99.90
25716;DHT22;13573;50.936;4.328;2022-08-19T14:59:48;26.40;99.90
25716;DHT22;13573;50.936;4.328;2022-08-19T15:02:15;25.90;99.90
25716;DHT22;13573;50.936;4.328;2022-08-19T15:07:09;26.20;99.90
25716;DHT22;13573;50.936;4.328;2022-08-19T15:09:36;26.10;99.90
25716;DHT22;13573;50.936;4.328;2022-08-19T15:12:03;26.00;99.90
25716;DHT22;13573;50.936;4.328;2022-08-19T15:14:30;26.30;99.90
25716;DHT22;13573;50.936;4.328;2022-08-19T15:17:02;26.50;99.90
25716;DHT22;13573;50.936;4.328;2022-08-19T15:19:32;26.50;99.90
25716;DHT22;13573;50.936;4.328;2022-08-19T15:22:01;26.60;99.90
25716;DHT22;13573;50.936;4.328;2022-08-19T15:24:29;26.60;99.90
25716;DHT22;13573;50.936;4.328;2022-08-19T15:26:55;26.80;99.90
25716;DHT22;13573;50.936;4.328;2022-08-19T15:29:22;25.90;99.90
25716;DHT22;13573;50.936;4.328;2022-08-19T15:31:51;25.40;99.90
25716;DHT22;13573;50.936;4.328;2022-08-19T15:34:20;26.30;99.90
25716;DHT22;13573;50.936;4.328;2022-08-19T15:36:47;26.20;99.90
25716;DHT22;13573;50.936;4.328;2022-08-19T15:39:14;26.20;99.90
25716;DHT22;13573;50.936;4.328;2022-08-19T15:41:41;26.10;99.90
25716;DHT22;13573;50.936;4.328;2022-08-19T15:44:11;25.90;99.90
25716;DHT22;13573;50.936;4.328;2022-08-19T15:46:41;25.30;99.90
25716;DHT22;13573;50.936;4.328;2022-08-19T15:49:13;25.10;99.90
25716;DHT22;13573;50.936;4.328;2022-08-19T15:51:41;24.90;99.90
25716;DHT22;13573;50.936;4.328;2022-08-19T15:54:11;24.90;99.90
25716;DHT22;13573;50.936;4.328;2022-08-19T15:56:38;24.60;99.90
25716;DHT22;13573;50.936;4.328;2022-08-19T15:59:11;24.90;99.90
25716;DHT22;13573;50.936;4.328;2022-08-19T16:01:43;24.90;99.90
25716;DHT22;13573;50.936;4.328;2022-08-19T16:04:16;25.20;99.90
25716;DHT22;13573;50.936;4.328;2022-08-19T16:06:51;25.80;99.90
25716;DHT22;13573;50.936;4.328;2022-08-19T16:09:22;25.50;99.90
25716;DHT22;13573;50.936;4.328;2022-08-19T16:11:49;25.70;99.90